Time;durP1;ratioP1;P1;durP2;ratioP2;P2;SDS_P1;SDS_P2;PMS_P1;PMS_P2;Temp;Humidity;BMP_temperature;BMP_pressure;BME280_temperature;BME280_humidity;BME280_pressure;Samples;Min_cycle;Max_cycle;Signal;HPM_P1;HPM_P2
2022/05/29 00:02:15;;;;;;;;;3.00;3.00;;;;;11.14;68.44;99397.78;6333295;20;1805527;-60
2022/05/29 00:04:44;;;;;;;;;3.50;3.50;;;;;11.41;65.80;99396.84;6335565;20;1808738;-60
2022/05/29 00:07:16;;;;;;;;;3.00;3.00;;;;;11.73;64.16;99391.88;6318702;20;2739911;-60
2022/05/29 00:09:48;;;;;;;;;4.00;4.00;;;;;11.36;66.54;99399.00;6282534;20;2755461;-58
2022/05/29 00:12:19;;;;;;;;;3.00;3.00;;;;;10.92;67.98;99389.47;6288420;20;2727331;-59
2022/05/29 00:14:49;;;;;;;;;2.50;2.50;;;;;11.02;68.80;99390.56;6302022;20;1811810;-54
2022/05/29 00:17:20;;;;;;;;;2.00;2.00;;;;;11.04;67.88;99391.31;6334308;20;1809762;-57
2022/05/29 00:19:49;;;;;;;;;3.25;3.00;;;;;10.67;69.87;99385.75;6333767;20;1811507;-57
2022/05/29 00:22:22;;;;;;;;;4.00;4.00;;;;;10.28;71.74;99367.78;6314052;20;2774266;-57
2022/05/29 00:24:51;;;;;;;;;4.50;3.00;;;;;10.54;72.13;99368.75;6285604;20;2748156;-56
2022/05/29 00:27:19;;;;;;;;;4.00;4.00;;;;;10.51;72.64;99363.56;6286383;20;2752520;-57
2022/05/29 00:29:47;;;;;;;;;3.25;3.25;;;;;10.38;72.96;99360.00;6303678;20;1811471;-58
2022/05/29 00:32:17;;;;;;;;;3.75;3.00;;;;;9.96;73.45;99370.69;6334498;20;1816692;-56
2022/05/29 00:34:44;;;;;;;;;4.00;4.00;;;;;9.84;74.50;99364.28;6311954;20;2751314;-57
2022/05/29 00:37:13;;;;;;;;;4.00;3.50;;;;;10.35;72.55;99365.53;6286050;20;2750300;-56
2022/05/29 00:39:41;;;;;;;;;4.00;4.00;;;;;10.22;73.38;99360.97;6284948;20;2748300;-57
2022/05/29 00:42:15;;;;;;;;;3.00;3.00;;;;;10.27;73.40;99350.81;6299715;20;1804991;-56
2022/05/29 00:44:43;;;;;;;;;3.50;3.25;;;;;10.64;71.50;99358.25;6330392;20;1811818;-56
2022/05/29 00:47:29;;;;;;;;;4.00;4.00;;;;;10.86;70.58;99352.28;6317198;20;2752509;-55
2022/05/29 00:49:59;;;;;;;;;4.25;3.00;;;;;10.97;69.64;99347.88;6301599;20;1801336;-55
2022/05/29 00:52:29;;;;;;;;;2.00;0.25;;;;;10.51;72.42;99344.78;6334403;20;1809612;-57
2022/05/29 00:55:11;;;;;;;;;3.50;3.00;;;;;10.61;72.38;99347.69;6318660;20;2746080;-58
2022/05/29 00:57:54;;;;;;;;;4.00;3.00;;;;;10.42;72.95;99342.69;6282483;20;2750308;-58
2022/05/29 01:00:28;;;;;;;;;5.00;3.75;;;;;10.27;74.21;99340.09;6298914;20;1819223;-57
2022/05/29 01:03:01;;;;;;;;;4.00;3.00;;;;;10.48;72.37;99339.63;6314490;20;2735827;-57
2022/05/29 01:05:33;;;;;;;;;3.00;3.00;;;;;10.22;74.72;99336.81;6316679;20;2752329;-57
2022/05/29 01:08:28;;;;;;;;;3.00;3.00;;;;;10.94;70.92;99347.25;6285256;20;2755483;-57
2022/05/29 01:11:21;;;;;;;;;4.00;4.00;;;;;11.07;69.84;99340.06;6280622;20;2756489;-55
2022/05/29 01:14:03;;;;;;;;;5.00;3.00;;;;;10.71;72.27;99332.69;6283209;20;2746110;-55
2022/05/29 01:17:03;;;;;;;;;4.50;4.00;;;;;10.42;74.10;99331.97;6282801;20;2745169;-56
2022/05/29 01:20:23;;;;;;;;;3.00;3.00;;;;;10.38;75.19;99335.84;6284561;20;2738849;-56
2022/05/29 01:23:51;;;;;;;;;3.00;3.00;;;;;10.39;75.00;99332.19;6329588;20;1803429;-55
2022/05/29 01:27:20;;;;;;;;;3.00;3.00;;;;;10.69;71.72;99327.44;6314915;20;2746107;-54
2022/05/29 01:30:19;;;;;;;;;4.00;4.00;;;;;10.79;72.55;99324.13;6280059;20;2753517;-57
2022/05/29 01:33:11;;;;;;;;;6.00;2.00;;;;;10.87;70.51;99321.75;6297490;20;1805570;-54
2022/05/29 01:36:49;;;;;;;;;6.00;4.00;;;;;11.32;67.30;99320.41;6312087;20;2747134;-56
2022/05/29 01:39:32;;;;;;;;;3.00;3.00;;;;;11.07;69.44;99317.72;6279293;20;2746124;-57
2022/05/29 01:42:54;;;;;;;;;4.50;4.50;;;;;10.92;69.29;99315.09;6283808;20;2748227;-56
2022/05/29 01:45:54;;;;;;;;;4.00;4.00;;;;;11.29;67.38;99317.91;6280869;20;2751322;-54
2022/05/29 01:48:53;;;;;;;;;3.00;3.00;;;;;11.17;68.76;99316.97;6302810;20;1807647;-57
2022/05/29 01:51:40;;;;;;;;;3.50;3.50;;;;;11.18;69.07;99315.97;6313337;20;2752336;-51
2022/05/29 01:54:35;;;;;;;;;4.00;4.00;;;;;11.45;66.95;99317.69;6282631;20;2742947;-58
2022/05/29 01:57:21;;;;;;;;;6.00;3.00;;;;;11.50;66.82;99318.22;6295804;20;1813354;-57
2022/05/29 02:00:18;;;;;;;;;3.00;2.00;;;;;11.47;67.25;99323.81;6328460;20;1804526;-58
2022/05/29 02:03:16;;;;;;;;;4.00;4.00;;;;;11.46;67.04;99327.47;6312658;20;2742961;-57
2022/05/29 02:06:18;;;;;;;;;3.25;3.25;;;;;11.57;66.66;99322.19;6299179;20;1809704;-57
2022/05/29 02:08:52;;;;;;;;;2.50;2.50;;;;;11.63;66.00;99324.44;6314098;20;2735671;-58
2022/05/29 02:11:25;;;;;;;;;3.00;3.00;;;;;11.58;65.66;99318.53;6300208;20;1811835;-57
2022/05/29 02:14:14;;;;;;;;;3.00;3.00;;;;;11.61;65.22;99320.13;6329103;20;1803492;-51
2022/05/29 02:16:53;;;;;;;;;3.50;3.00;;;;;11.59;65.38;99324.78;6313746;20;2735718;-51
2022/05/29 02:19:34;;;;;;;;;3.00;3.00;;;;;11.77;64.27;99327.97;6281333;20;2752352;-51
2022/05/29 02:22:12;;;;;;;;;3.00;3.00;;;;;11.56;65.69;99316.94;6281185;20;2739896;-50
2022/05/29 02:24:51;;;;;;;;;2.50;2.25;;;;;11.51;67.15;99311.88;6298848;20;1806614;-56
2022/05/29 02:28:06;;;;;;;;;2.00;2.00;;;;;11.21;69.53;99321.13;6330082;20;1809782;-55
2022/05/29 02:31:19;;;;;;;;;3.00;3.00;;;;;10.75;71.96;99324.31;6312951;20;2731567;-56
2022/05/29 02:33:56;;;;;;;;;6.50;4.00;;;;;10.67;70.62;99332.03;6312695;20;2754446;-54
2022/05/29 02:36:56;;;;;;;;;5.00;3.50;;;;;10.61;69.46;99335.16;6277949;20;2752370;-53
2022/05/29 02:40:23;;;;;;;;;2.00;2.00;;;;;10.79;66.54;99334.84;6298811;20;1805239;-54
2022/05/29 02:43:35;;;;;;;;;3.00;3.00;;;;;11.03;65.24;99327.78;6328916;20;1805462;-50
2022/05/29 02:46:42;;;;;;;;;3.00;3.00;;;;;11.12;65.55;99337.06;6312692;20;2740938;-53
2022/05/29 02:49:57;;;;;;;;;4.00;3.00;;;;;10.80;67.14;99331.22;6313206;20;2728398;-52
2022/05/29 02:52:25;;;;;;;;;3.00;3.00;;;;;10.85;67.54;99329.06;6329118;20;1808053;-51
2022/05/29 02:54:55;;;;;;;;;3.75;2.25;;;;;11.06;65.60;99332.97;6328921;20;1820190;-51
2022/05/29 02:57:23;;;;;;;;;3.00;3.00;;;;;10.85;68.06;99339.78;6335140;20;1804524;-51
2022/05/29 03:00:07;;;;;;;;;4.00;2.25;;;;;10.91;66.94;99325.97;6335701;20;1810829;-52
2022/05/29 03:02:44;;;;;;;;;2.00;2.00;;;;;11.18;66.26;99334.78;6320215;20;2744146;-49
2022/05/29 03:06:20;;;;;;;;;4.25;2.25;;;;;10.94;67.02;99321.22;6304557;20;1809736;-52
2022/05/29 03:09:23;;;;;;;;;9.50;8.00;;;;;11.05;65.57;99323.19;6314777;20;2750341;-49
2022/05/29 03:11:52;;;;;;;;;4.50;3.00;;;;;10.83;66.67;99312.22;6304585;20;1804542;-52
2022/05/29 03:14:44;;;;;;;;;2.00;2.00;;;;;10.94;65.02;99313.19;6319797;20;2748205;-52
2022/05/29 03:17:37;;;;;;;;;3.00;3.00;;;;;10.91;65.54;99310.72;6301289;20;1802380;-53
2022/05/29 03:20:40;;;;;;;;;3.00;3.00;;;;;11.19;65.30;99315.03;6317049;20;2734710;-53
2022/05/29 03:23:31;;;;;;;;;4.50;4.50;;;;;11.17;66.81;99308.91;6299165;20;1819163;-55
2022/05/29 03:26:06;;;;;;;;;3.00;3.00;;;;;10.97;68.55;99312.09;6334796;20;1811727;-53
2022/05/29 03:28:50;;;;;;;;;3.50;3.00;;;;;11.08;68.27;99301.47;6317842;20;2740377;-53
2022/05/29 03:31:25;;;;;;;;;4.00;2.00;;;;;11.09;69.23;99305.03;6333393;20;1803464;-54
2022/05/29 03:33:54;;;;;;;;;3.00;3.00;;;;;11.19;68.43;99306.97;6329864;20;1809675;-51
2022/05/29 03:36:25;;;;;;;;;3.00;3.00;;;;;11.24;68.83;99303.06;6331769;20;1807644;-48
2022/05/29 03:38:54;;;;;;;;;2.00;2.00;;;;;11.43;67.37;99303.50;6334018;20;1807676;-49
2022/05/29 03:41:46;;;;;;;;;2.50;2.50;;;;;11.51;66.37;99305.66;6316053;20;2753396;-50
2022/05/29 03:44:18;;;;;;;;;3.00;3.00;;;;;11.55;65.64;99301.75;6283332;20;2731641;-51
2022/05/29 03:46:45;;;;;;;;;5.00;5.00;;;;;11.72;65.76;99304.09;6287922;20;2743001;-48
2022/05/29 03:49:18;;;;;;;;;7.00;3.00;;;;;11.87;65.11;99304.84;6286648;20;2746231;-49
2022/05/29 03:51:47;;;;;;;;;6.00;4.00;;;;;11.64;67.74;99314.56;6287263;20;2747144;-51
2022/05/29 03:54:15;;;;;;;;;5.00;3.00;;;;;11.64;68.20;99307.34;6287273;20;2740887;-48
2022/05/29 03:56:43;;;;;;;;;4.00;4.00;;;;;11.78;67.60;99318.94;6285591;20;2748208;-49
2022/05/29 03:59:11;;;;;;;;;5.50;3.50;;;;;11.74;66.41;99314.75;6284393;20;2746205;-49
2022/05/29 04:01:39;;;;;;;;;6.00;3.00;;;;;11.79;66.57;99316.13;6287945;20;2722212;-50
2022/05/29 04:04:08;;;;;;;;;4.00;2.00;;;;;11.72;68.67;99314.00;6301082;20;1802474;-51
2022/05/29 04:06:40;;;;;;;;;4.75;3.00;;;;;11.83;67.89;99325.69;6334671;20;1806600;-50
2022/05/29 04:12:04;;;;;;;;;4.00;4.00;;;;;11.88;64.86;99314.66;6286860;20;2743025;-49
2022/05/29 04:14:43;;;;;;;;;5.00;4.50;;;;;11.70;66.01;99315.94;6283974;20;2749316;-54
2022/05/29 04:17:16;;;;;;;;;7.00;5.00;;;;;12.14;63.32;99319.91;6285230;20;2730679;-49
2022/05/29 04:19:46;;;;;;;;;4.00;4.00;;;;;12.13;64.08;99327.13;6285344;20;2744028;-49
2022/05/29 04:22:21;;;;;;;;;5.00;5.00;;;;;11.99;64.73;99320.09;6284289;20;2749225;-56
2022/05/29 04:24:49;;;;;;;;;5.00;3.00;;;;;11.75;66.82;99335.31;6282123;20;2749211;-56
2022/05/29 04:27:17;;;;;;;;;6.00;4.00;;;;;11.78;68.22;99329.69;6287491;20;2754412;-58
2022/05/29 04:29:45;;;;;;;;;3.00;3.00;;;;;11.54;68.02;99322.41;6287638;20;2732593;-45
2022/05/29 04:34:59;;;;;;;;;9.00;3.00;;;;;11.79;66.92;99326.03;6284719;20;2757539;-45
2022/05/29 04:37:29;;;;;;;;;3.50;3.50;;;;;11.97;66.66;99323.88;6289506;20;2754522;-46
2022/05/29 04:39:57;;;;;;;;;3.00;3.00;;;;;12.35;62.93;99325.53;6281350;20;2752340;-46
2022/05/29 04:42:26;;;;;;;;;4.50;3.00;;;;;12.11;65.17;99325.53;6301745;20;1802471;-48
2022/05/29 04:44:54;;;;;;;;;3.00;3.00;;;;;12.27;65.42;99323.44;6315439;20;2735707;-45
2022/05/29 04:47:22;;;;;;;;;3.00;3.00;;;;;12.56;64.78;99325.75;6287771;20;2736717;-44
2022/05/29 04:49:49;;;;;;;;;5.00;4.00;;;;;12.67;66.11;99312.38;6283502;20;2753392;-47
2022/05/29 04:52:17;;;;;;;;;3.00;3.00;;;;;12.75;64.67;99318.03;6282898;20;2747127;-46
2022/05/29 04:54:45;;;;;;;;;4.00;4.00;;;;;12.53;64.01;99321.47;6285027;20;2749284;-50
2022/05/29 04:57:12;;;;;;;;;5.50;4.00;;;;;12.02;67.19;99327.94;6286923;20;2747181;-51
2022/05/29 04:59:40;;;;;;;;;3.00;3.00;;;;;12.55;63.51;99318.66;6285784;20;2735807;-47
2022/05/29 05:02:08;;;;;;;;;3.00;3.00;;;;;12.57;61.98;99314.03;6284774;20;2754429;-47
2022/05/29 05:04:36;;;;;;;;;2.75;2.50;;;;;12.67;62.34;99317.75;6296380;20;1807660;-45
2022/05/29 05:07:05;;;;;;;;;3.25;2.00;;;;;12.58;63.22;99313.03;6327983;20;1810991;-45
2022/05/29 05:09:34;;;;;;;;;2.50;2.50;;;;;12.68;63.30;99314.91;6329468;20;1799292;-57
2022/05/29 05:12:02;;;;;;;;;3.00;3.00;;;;;12.94;61.09;99315.63;6314390;20;2749194;-58
2022/05/29 05:14:29;;;;;;;;;6.50;5.00;;;;;13.09;60.94;99310.03;6280952;20;2748159;-57
2022/05/29 05:16:57;;;;;;;;;4.00;4.00;;;;;13.01;61.74;99313.31;6281034;20;2756544;-57
2022/05/29 05:19:26;;;;;;;;;6.25;4.75;;;;;12.73;63.28;99312.72;6297915;20;1806631;-55
2022/05/29 05:21:54;;;;;;;;;4.00;4.00;;;;;13.26;61.04;99306.88;6315867;20;2756642;-58
2022/05/29 05:24:22;;;;;;;;;4.00;4.00;;;;;13.25;60.59;99307.84;6284646;20;2750282;-58
2022/05/29 05:26:49;;;;;;;;;5.00;4.00;;;;;13.35;61.45;99303.47;6285478;20;2749228;-55
2022/05/29 05:29:17;;;;;;;;;5.50;4.00;;;;;13.81;60.13;99310.56;6285364;20;2748267;-57
2022/05/29 05:31:45;;;;;;;;;5.00;3.00;;;;;13.90;58.51;99297.28;6290781;20;2638860;-49
2022/05/29 05:34:13;;;;;;;;;4.50;4.00;;;;;14.10;58.77;99299.22;6282685;20;2752788;-46
2022/05/29 05:36:41;;;;;;;;;4.50;3.50;;;;;13.65;59.85;99310.09;6285083;20;2748199;-55
2022/05/29 05:39:09;;;;;;;;;6.00;3.00;;;;;13.88;60.44;99293.91;6283819;20;2754438;-56
2022/05/29 05:41:37;;;;;;;;;3.00;3.00;;;;;14.16;60.50;99301.41;6301751;20;1794831;-58
2022/05/29 05:44:05;;;;;;;;;4.50;2.00;;;;;14.35;58.60;99302.59;6315321;20;2742077;-57
2022/05/29 05:46:33;;;;;;;;;3.50;3.00;;;;;14.31;59.84;99303.84;6284255;20;2755582;-58
2022/05/29 05:49:01;;;;;;;;;2.00;2.00;;;;;14.43;57.81;99294.72;6285157;20;2750402;-51
2022/05/29 05:51:29;;;;;;;;;4.00;4.00;;;;;14.73;58.88;99301.25;6286259;20;2748165;-45
2022/05/29 05:53:57;;;;;;;;;4.00;4.00;;;;;14.62;59.06;99294.91;6281100;20;2754505;-49
2022/05/29 05:56:24;;;;;;;;;5.00;3.00;;;;;14.54;59.92;99294.72;6286494;20;2753570;-50
2022/05/29 05:58:52;;;;;;;;;3.00;3.00;;;;;14.99;55.46;99299.88;6286155;20;2740058;-52
2022/05/29 06:01:20;;;;;;;;;3.00;3.00;;;;;15.00;57.08;99303.44;6285431;20;2735733;-47
2022/05/29 06:03:52;;;;;;;;;4.00;4.00;;;;;15.43;55.29;99300.56;6285793;20;2754617;-50
2022/05/29 06:06:20;;;;;;;;;5.00;4.00;;;;;15.32;54.75;99297.91;6285298;20;2754616;-47
2022/05/29 06:08:49;;;;;;;;;4.00;3.00;;;;;15.58;54.01;99293.78;6301994;20;1805606;-53
2022/05/29 06:11:16;;;;;;;;;1.00;1.00;;;;;15.66;54.28;99297.66;6315846;20;2726324;-54
2022/05/29 06:13:45;;;;;;;;;2.00;2.00;;;;;15.90;52.72;99292.78;6285708;20;2744068;-55
2022/05/29 06:16:13;;;;;;;;;2.00;2.00;;;;;16.02;52.81;99294.38;6284406;20;2748190;-55
2022/05/29 06:18:41;;;;;;;;;2.00;2.00;;;;;16.41;51.33;99289.03;6286452;20;2744123;-56
2022/05/29 06:21:10;;;;;;;;;4.50;3.00;;;;;16.39;50.78;99293.72;6281670;20;2733634;-46
2022/05/29 06:23:40;;;;;;;;;2.00;2.00;;;;;16.16;49.93;99292.28;6284485;20;2750326;-45
2022/05/29 06:26:12;;;;;;;;;2.00;2.00;;;;;16.30;50.35;99289.19;6282922;20;2734772;-48
2022/05/29 06:28:41;;;;;;;;;4.00;2.00;;;;;16.68;50.34;99284.75;6282386;20;2731500;-59
2022/05/29 06:31:12;;;;;;;;;3.00;3.00;;;;;16.97;49.85;99292.03;6286048;20;2729417;-46
2022/05/29 06:33:40;;;;;;;;;4.00;3.00;;;;;17.17;48.22;99288.31;6288192;20;2739869;-47
2022/05/29 06:36:24;;;;;;;;;2.00;2.00;;;;;17.43;48.74;99295.78;6289404;20;2742980;-46
2022/05/29 06:38:55;;;;;;;;;3.00;2.00;;;;;17.32;47.28;99294.97;6291445;20;2746221;-50
2022/05/29 06:41:25;;;;;;;;;4.00;3.00;;;;;17.38;48.22;99296.25;6293463;20;2735670;-46
2022/05/29 06:43:53;;;;;;;;;3.00;3.00;;;;;17.75;48.63;99298.94;6289302;20;2742969;-53
2022/05/29 06:46:21;;;;;;;;;2.00;2.00;;;;;17.29;47.15;99297.97;6287750;20;2738809;-46
2022/05/29 06:48:50;;;;;;;;;4.00;2.00;;;;;17.72;46.59;99299.25;6288765;20;2755514;-48
2022/05/29 06:51:22;;;;;;;;;3.00;3.00;;;;;17.46;46.64;99292.78;6291138;20;2752354;-56
2022/05/29 06:53:54;;;;;;;;;1.00;1.00;;;;;17.76;45.95;99295.22;6289695;20;2735755;-55
2022/05/29 06:56:23;;;;;;;;;3.00;3.00;;;;;17.25;46.96;99296.56;6293406;20;2729437;-57
2022/05/29 06:58:53;;;;;;;;;1.00;1.00;;;;;17.49;46.51;99293.34;6289475;20;2725249;-55
2022/05/29 07:07:16;;;;;;;;;1.50;1.50;;;;;17.43;45.61;99295.78;6290122;20;2731535;-59
2022/05/29 07:09:44;;;;;;;;;1.00;1.00;;;;;17.33;44.00;99299.41;6298988;20;2727369;-51
2022/05/29 07:12:31;;;;;;;;;0.50;0.50;;;;;16.86;46.05;99291.19;6288091;20;2725255;-49
2022/05/29 07:15:06;;;;;;;;;1.00;1.00;;;;;16.94;45.43;99297.75;6304917;20;1793072;-49
2022/05/29 07:17:35;;;;;;;;;3.00;2.00;;;;;17.22;48.26;99295.97;6320050;20;2752479;-53
2022/05/29 07:20:07;;;;;;;;;1.80;1.80;;;;;16.98;44.84;99291.03;6323299;20;2459609;-49
2022/05/29 07:22:35;;;;;;;;;1.00;1.00;;;;;16.75;46.03;99299.47;6320305;20;2727397;-45
2022/05/29 07:25:05;;;;;;;;;1.00;1.00;;;;;16.73;44.76;99293.31;6304496;20;1800329;-47
2022/05/29 07:27:33;;;;;;;;;1.00;1.00;;;;;16.67;45.35;99285.78;6320064;20;2727827;-52
2022/05/29 07:30:02;;;;;;;;;2.50;1.00;;;;;16.51;46.02;99291.75;6287887;20;2737841;-54
2022/05/29 07:32:30;;;;;;;;;1.00;1.00;;;;;16.01;46.29;99299.97;6287439;20;2732213;-51
2022/05/29 07:35:00;;;;;;;;;1.00;1.00;;;;;16.23;46.00;99298.84;6303960;20;1799336;-48
2022/05/29 07:37:28;;;;;;;;;2.00;1.00;;;;;16.32;46.07;99297.16;6336560;20;1795218;-57
2022/05/29 07:39:56;;;;;;;;;2.00;1.00;;;;;16.52;47.23;99298.88;6317974;20;2746125;-50
2022/05/29 07:45:10;;;;;;;;;2.50;2.00;;;;;16.56;46.30;99305.75;6287277;20;2744115;-49
2022/05/29 07:47:45;;;;;;;;;3.00;3.00;;;;;16.63;48.39;99300.59;6286969;20;2752346;-54
2022/05/29 07:50:19;;;;;;;;;0.75;0.75;;;;;17.13;45.59;99308.56;6303277;20;1802479;-50
2022/05/29 07:52:50;;;;;;;;;2.00;2.00;;;;;17.08;46.19;99298.16;6317686;20;2731977;-53
2022/05/29 07:55:20;;;;;;;;;1.00;1.00;;;;;17.56;45.44;99299.00;6289268;20;2725369;-58
2022/05/29 07:57:48;;;;;;;;;5.00;1.00;;;;;17.53;46.17;99294.75;6287238;20;2737833;-57
2022/05/29 08:00:20;;;;;;;;;2.50;1.00;;;;;17.68;45.44;99303.25;6287449;20;2735895;-59
2022/05/29 08:02:48;;;;;;;;;3.50;1.00;;;;;17.42;45.27;99307.66;6300733;20;1802488;-59
2022/05/29 08:05:21;;;;;;;;;1.50;1.50;;;;;17.73;45.79;99297.41;6314453;20;2739866;-59
2022/05/29 08:07:50;;;;;;;;;2.00;2.00;;;;;17.49;44.60;99282.47;6285781;20;2752388;-47
2022/05/29 08:10:22;;;;;;;;;2.50;1.50;;;;;17.48;44.86;99285.34;6290154;20;2739839;-46
2022/05/29 08:12:50;;;;;;;;;4.00;2.00;;;;;17.50;43.83;99286.06;6289602;20;2750274;-49
2022/05/29 08:15:18;;;;;;;;;1.00;1.00;;;;;17.60;44.21;99278.72;6288641;20;2730465;-46
2022/05/29 08:17:46;;;;;;;;;1.00;1.00;;;;;17.50;43.89;99269.75;6288388;20;2729576;-47
2022/05/29 08:20:17;;;;;;;;;1.50;1.50;;;;;17.53;44.93;99273.03;6285949;20;2731661;-47
2022/05/29 08:22:45;;;;;;;;;3.00;3.00;;;;;17.51;45.44;99274.22;6286964;20;2739883;-46
2022/05/29 08:30:53;;;;;;;;;2.00;2.00;;;;;17.69;44.65;99268.81;6287548;20;2727369;-57
2022/05/29 08:33:26;;;;;;;;;2.00;2.00;;;;;17.69;43.03;99271.53;6289964;20;2732607;-56
2022/05/29 08:36:10;;;;;;;;;4.50;4.00;;;;;18.10;45.08;99274.78;6287275;20;2732571;-47
2022/05/29 08:38:46;;;;;;;;;3.00;1.00;;;;;18.56;42.58;99272.84;6286386;20;2727343;-54
2022/05/29 08:41:42;;;;;;;;;1.00;1.00;;;;;18.68;43.17;99273.50;6286829;20;2731694;-49
2022/05/29 08:44:15;;;;;;;;;2.50;1.00;;;;;18.67;42.82;99263.59;6286467;20;2727349;-51
2022/05/29 08:46:52;;;;;;;;;1.00;1.00;;;;;17.90;43.56;99260.44;6286009;20;2727402;-48
2022/05/29 08:49:27;;;;;;;;;3.00;2.00;;;;;18.34;42.46;99263.31;6291992;20;2742083;-46
2022/05/29 08:52:35;;;;;;;;;1.50;1.50;;;;;18.21;42.64;99261.81;6290536;20;2739881;-48
2022/05/29 08:55:26;;;;;;;;;1.00;1.00;;;;;18.09;42.54;99263.06;6291874;20;2722161;-50
2022/05/29 08:58:30;;;;;;;;;2.50;1.00;;;;;18.11;41.41;99263.75;6292212;20;2730473;-51
2022/05/29 09:01:24;;;;;;;;;1.00;1.00;;;;;17.97;41.30;99261.56;6289095;20;2724245;-51
2022/05/29 09:04:10;;;;;;;;;1.00;1.00;;;;;17.60;42.03;99257.00;6290980;20;2733604;-48
2022/05/29 09:06:55;;;;;;;;;2.00;1.00;;;;;17.70;43.24;99254.25;6287839;20;2724604;-50
2022/05/29 09:09:36;;;;;;;;;4.00;1.00;;;;;17.92;42.97;99253.84;6290854;20;2728378;-49
2022/05/29 09:12:15;;;;;;;;;1.00;1.00;;;;;17.96;42.16;99241.69;6305464;20;1801866;-52
2022/05/29 09:15:26;;;;;;;;;1.00;1.00;;;;;17.74;42.57;99242.91;6319521;20;2726289;-51
2022/05/29 09:18:03;;;;;;;;;1.00;1.00;;;;;18.02;43.66;99244.81;6294056;20;2735684;-49
2022/05/29 09:20:40;;;;;;;;;2.00;2.00;;;;;18.13;43.10;99253.59;6289286;20;2735717;-47
2022/05/29 09:23:25;;;;;;;;;2.00;1.50;;;;;18.24;42.88;99243.50;6290726;20;2731590;-50
2022/05/29 09:25:55;;;;;;;;;1.50;1.50;;;;;18.13;41.92;99248.16;6289522;20;2735665;-49
2022/05/29 09:28:37;;;;;;;;;1.00;1.00;;;;;18.43;43.68;99243.34;6291460;20;2719055;-55
2022/05/29 09:31:19;;;;;;;;;3.00;2.00;;;;;18.21;42.58;99245.50;6286281;20;2754496;-52
2022/05/29 09:33:49;;;;;;;;;2.50;1.00;;;;;18.19;43.36;99238.53;6288075;20;2725278;-51
2022/05/29 09:36:50;;;;;;;;;2.00;0.50;;;;;18.00;42.69;99242.22;6289832;20;2744060;-53
2022/05/29 09:39:35;;;;;;;;;3.00;2.50;;;;;17.32;43.80;99238.00;6290763;20;2748208;-48
2022/05/29 09:42:15;;;;;;;;;4.00;2.00;;;;;18.56;42.10;99235.69;6285563;20;2746092;-50
2022/05/29 09:45:20;;;;;;;;;2.00;2.00;;;;;18.79;43.76;99240.63;6289923;20;2751288;-46
2022/05/29 09:50:55;;;;;;;;;2.50;2.00;;;;;18.08;41.65;99239.59;6288898;20;2744025;-54
2022/05/29 09:53:51;;;;;;;;;1.00;1.00;;;;;17.94;42.46;99242.84;6290435;20;2726297;-59
2022/05/29 09:56:31;;;;;;;;;2.00;2.00;;;;;18.09;42.71;99245.88;6287321;20;2744134;-57
2022/05/29 09:59:15;;;;;;;;;1.00;1.00;;;;;17.91;42.84;99237.72;6291639;20;2729435;-56
2022/05/29 10:01:45;;;;;;;;;3.00;2.00;;;;;18.07;41.35;99243.34;6287560;20;2750263;-52
2022/05/29 10:04:28;;;;;;;;;4.00;1.00;;;;;18.01;42.23;99237.66;6289200;20;2744035;-48
2022/05/29 10:06:59;;;;;;;;;1.00;1.00;;;;;17.50;44.06;99239.91;6288302;20;2735715;-49
2022/05/29 10:09:30;;;;;;;;;2.00;2.00;;;;;17.94;42.78;99243.72;6289744;20;2738878;-49
2022/05/29 10:12:18;;;;;;;;;2.00;0.00;;;;;17.66;42.83;99239.25;6292463;20;2742149;-47
2022/05/29 10:14:46;;;;;;;;;1.00;1.00;;;;;17.34;43.30;99238.69;6290368;20;2722156;-53
2022/05/29 10:17:36;;;;;;;;;1.00;1.00;;;;;17.97;43.11;99242.53;6287057;20;2737764;-50
2022/05/29 10:20:37;;;;;;;;;2.50;1.00;;;;;17.58;43.49;99240.00;6290450;20;2724305;-49
2022/05/29 10:23:31;;;;;;;;;1.50;1.00;;;;;17.65;43.00;99238.41;6287303;20;2457554;-50
2022/05/29 10:26:27;;;;;;;;;2.50;1.00;;;;;18.02;42.78;99237.50;6287494;20;2727354;-51
2022/05/29 10:28:55;;;;;;;;;3.00;1.00;;;;;18.15;41.97;99238.00;6291837;20;2723302;-58
2022/05/29 10:31:30;;;;;;;;;3.50;2.00;;;;;18.26;43.04;99231.47;6286045;20;2746104;-56
2022/05/29 10:34:14;;;;;;;;;2.50;2.50;;;;;18.04;41.88;99230.06;6285351;20;2754441;-59
2022/05/29 10:36:48;;;;;;;;;2.00;0.00;;;;;18.35;42.58;99229.69;6286826;20;2730461;-46
2022/05/29 10:39:31;;;;;;;;;1.00;1.00;;;;;18.36;42.02;99228.69;6284800;20;2748287;-46
2022/05/29 10:42:04;;;;;;;;;2.00;2.00;;;;;18.54;42.82;99224.09;6277318;20;2748195;-51
2022/05/29 10:44:37;;;;;;;;;1.50;1.50;;;;;18.56;41.67;99222.09;6287673;20;2742379;-49
2022/05/29 10:47:17;;;;;;;;;4.00;2.00;;;;;18.93;41.50;99214.72;6288865;20;2741964;-50
2022/05/29 10:50:09;;;;;;;;;2.00;0.00;;;;;19.12;41.30;99224.56;6290483;20;2724222;-49
2022/05/29 10:53:14;;;;;;;;;3.00;1.00;;;;;18.77;41.21;99219.06;6289040;20;2723248;-57
2022/05/29 10:55:51;;;;;;;;;1.50;1.50;;;;;18.91;41.66;99220.34;6289156;20;2737754;-57
2022/05/29 10:58:37;;;;;;;;;2.00;1.00;;;;;18.37;42.40;99211.34;6291768;20;2726310;-58
2022/05/29 11:05:46;;;;;;;;;1.00;1.00;;;;;18.75;42.20;99209.34;6315012;20;2720097;-48
2022/05/29 11:09:03;;;;;;;;;1.50;1.50;;;;;18.76;43.12;99201.00;6285173;20;2735803;-47
2022/05/29 11:11:57;;;;;;;;;2.00;1.00;;;;;18.29;43.06;99200.41;6287034;20;2723209;-56
2022/05/29 11:15:16;;;;;;;;;2.00;1.00;;;;;18.54;41.24;99207.78;6288301;20;2735654;-49
2022/05/29 11:19:04;;;;;;;;;5.50;3.00;;;;;18.50;41.13;99195.50;6287663;20;2749206;-50
2022/05/29 11:22:11;;;;;;;;;1.00;1.00;;;;;18.54;39.89;99199.63;6288735;20;2726326;-48
2022/05/29 11:25:11;;;;;;;;;1.50;0.00;;;;;18.63;40.86;99193.22;6292380;20;2728470;-47
2022/05/29 11:28:16;;;;;;;;;1.00;1.00;;;;;19.01;38.46;99195.72;6291442;20;2733593;-46
2022/05/29 11:31:28;;;;;;;;;2.00;0.00;;;;;18.82;37.75;99196.78;6290528;20;2733589;-43
2022/05/29 11:34:26;;;;;;;;;0.00;0.00;;;;;19.34;37.17;99196.75;6289163;20;2733634;-45
2022/05/29 11:37:42;;;;;;;;;3.75;1.00;;;;;19.24;37.16;99187.88;6334573;20;2730575;-53
2022/05/29 11:40:34;;;;;;;;;2.00;1.00;;;;;19.47;36.45;99199.03;6322469;20;2728386;-48
2022/05/29 11:43:27;;;;;;;;;2.00;0.00;;;;;19.10;35.91;99186.59;6296386;20;2735681;-44
2022/05/29 11:52:38;;;;;;;;;0.50;0.50;;;;;19.39;36.91;99169.06;6322709;20;2730463;-46
2022/05/29 11:55:25;;;;;;;;;1.00;1.00;;;;;19.95;35.88;99173.00;6299526;20;2731514;-51
2022/05/29 11:58:08;;;;;;;;;1.33;0.00;;;;;18.65;38.69;99168.59;6321340;20;2727324;-48
2022/05/29 12:00:57;;;;;;;;;1.00;1.00;;;;;19.41;38.16;99161.59;6319256;20;2731653;-44
2022/05/29 12:03:51;;;;;;;;;3.00;1.00;;;;;19.40;37.32;99163.44;6292407;20;2727414;-47
2022/05/29 12:06:44;;;;;;;;;1.00;1.00;;;;;18.77;39.22;99161.06;6292453;20;2719094;-50
2022/05/29 12:09:27;;;;;;;;;1.00;1.00;;;;;19.17;38.72;99155.00;6291792;20;2727391;-54
2022/05/29 12:12:07;;;;;;;;;0.00;0.00;;;;;18.67;37.64;99152.09;6290978;20;2724247;-48
2022/05/29 12:14:50;;;;;;;;;3.00;1.00;;;;;18.94;38.88;99165.59;6291443;20;2722146;-47
2022/05/29 12:17:43;;;;;;;;;1.00;1.00;;;;;18.58;38.00;99152.06;6290023;20;2733602;-49
2022/05/29 12:20:44;;;;;;;;;2.00;0.50;;;;;18.55;39.19;99138.78;6293591;20;2724603;-49
2022/05/29 12:23:38;;;;;;;;;1.00;1.00;;;;;18.72;38.98;99144.31;6291064;20;2727379;-48
2022/05/29 12:26:54;;;;;;;;;1.00;0.00;;;;;18.60;41.37;99136.44;6290894;20;2729423;-47
2022/05/29 12:29:37;;;;;;;;;1.00;1.00;;;;;18.59;39.80;99134.75;6290362;20;2721152;-49
2022/05/29 12:32:35;;;;;;;;;1.50;1.50;;;;;18.28;40.98;99137.06;6292985;20;2734625;-56
2022/05/29 12:35:19;;;;;;;;;1.00;1.00;;;;;18.27;40.33;99139.91;6304517;20;1796727;-48
2022/05/29 12:38:20;;;;;;;;;3.00;1.00;;;;;18.41;41.33;99139.38;6320135;20;2739955;-54
2022/05/29 12:41:24;;;;;;;;;1.00;1.00;;;;;18.25;40.95;99136.53;6289425;20;2727395;-56
2022/05/29 12:44:25;;;;;;;;;1.00;1.00;;;;;18.32;42.30;99134.88;6293512;20;2727386;-49
2022/05/29 12:47:24;;;;;;;;;1.00;1.00;;;;;18.22;43.15;99137.69;6290845;20;2724271;-53
2022/05/29 12:51:00;;;;;;;;;2.00;2.00;;;;;17.65;42.82;99123.53;6291119;20;2735724;-53
2022/05/29 12:54:30;;;;;;;;;1.00;1.00;;;;;17.97;43.94;99128.47;6290625;20;2729535;-52